sensor_id;sensor_type;location;lat;lon;timestamp;P1;durP1;ratioP1;P2;durP2;ratioP2
3967;SDS011;9221;42.646;23.380;2024-01-10T00:01:36;7.87;;;2.53;;
3967;SDS011;9221;42.646;23.380;2024-01-10T00:04:01;11.60;;;2.50;;
3967;SDS011;9221;42.646;23.380;2024-01-10T00:06:27;6.10;;;2.50;;
3967;SDS011;9221;42.646;23.380;2024-01-10T00:08:53;5.33;;;2.20;;
3967;SDS011;9221;42.646;23.380;2024-01-10T00:11:18;5.80;;;2.40;;
3967;SDS011;9221;42.646;23.380;2024-01-10T00:13:44;5.10;;;1.70;;
3967;SDS011;9221;42.646;23.380;2024-01-10T00:16:13;4.43;;;1.63;;
3967;SDS011;9221;42.646;23.380;2024-01-10T00:18:40;6.70;;;2.10;;
3967;SDS011;9221;42.646;23.380;2024-01-10T00:21:06;7.13;;;2.57;;
3967;SDS011;9221;42.646;23.380;2024-01-10T00:23:32;4.70;;;1.73;;
3967;SDS011;9221;42.646;23.380;2024-01-10T00:25:57;5.73;;;2.00;;
3967;SDS011;9221;42.646;23.380;2024-01-10T00:28:23;8.20;;;2.63;;
3967;SDS011;9221;42.646;23.380;2024-01-10T00:30:50;7.87;;;2.70;;
3967;SDS011;9221;42.646;23.380;2024-01-10T00:33:15;5.47;;;2.00;;
3967;SDS011;9221;42.646;23.380;2024-01-10T00:35:41;7.20;;;2.47;;
3967;SDS011;9221;42.646;23.380;2024-01-10T00:38:07;7.27;;;2.13;;
3967;SDS011;9221;42.646;23.380;2024-01-10T00:40:32;15.03;;;3.20;;
3967;SDS011;9221;42.646;23.380;2024-01-10T00:42:58;9.73;;;2.80;;
3967;SDS011;9221;42.646;23.380;2024-01-10T00:45:23;9.37;;;2.87;;
3967;SDS011;9221;42.646;23.380;2024-01-10T00:47:49;4.93;;;1.90;;
3967;SDS011;9221;42.646;23.380;2024-01-10T00:50:15;6.73;;;2.17;;
3967;SDS011;9221;42.646;23.380;2024-01-10T00:52:41;8.10;;;2.70;;
3967;SDS011;9221;42.646;23.380;2024-01-10T00:55:08;14.63;;;2.67;;
3967;SDS011;9221;42.646;23.380;2024-01-10T00:57:33;7.10;;;2.50;;
3967;SDS011;9221;42.646;23.380;2024-01-10T00:59:59;6.93;;;1.80;;
3967;SDS011;9221;42.646;23.380;2024-01-10T01:02:24;10.53;;;2.13;;
3967;SDS011;9221;42.646;23.380;2024-01-10T01:04:50;5.97;;;2.30;;
3967;SDS011;9221;42.646;23.380;2024-01-10T01:07:15;4.97;;;1.90;;
3967;SDS011;9221;42.646;23.380;2024-01-10T01:09:41;6.07;;;1.63;;
3967;SDS011;9221;42.646;23.380;2024-01-10T01:12:06;6.53;;;2.37;;
3967;SDS011;9221;42.646;23.380;2024-01-10T01:14:32;10.80;;;2.00;;
3967;SDS011;9221;42.646;23.380;2024-01-10T01:16:58;6.07;;;1.60;;
3967;SDS011;9221;42.646;23.380;2024-01-10T01:19:23;6.73;;;2.37;;
3967;SDS011;9221;42.646;23.380;2024-01-10T01:21:49;7.20;;;2.70;;
3967;SDS011;9221;42.646;23.380;2024-01-10T01:24:15;5.07;;;1.93;;
3967;SDS011;9221;42.646;23.380;2024-01-10T01:26:40;9.70;;;2.67;;
3967;SDS011;9221;42.646;23.380;2024-01-10T01:29:06;7.40;;;2.50;;
3967;SDS011;9221;42.646;23.380;2024-01-10T01:31:33;4.60;;;1.57;;
3967;SDS011;9221;42.646;23.380;2024-01-10T01:33:59;4.57;;;1.67;;
3967;SDS011;9221;42.646;23.380;2024-01-10T01:36:24;10.13;;;3.00;;
3967;SDS011;9221;42.646;23.380;2024-01-10T01:38:50;6.80;;;2.50;;
3967;SDS011;9221;42.646;23.380;2024-01-10T01:41:15;4.33;;;1.67;;
3967;SDS011;9221;42.646;23.380;2024-01-10T01:43:42;7.33;;;2.37;;
3967;SDS011;9221;42.646;23.380;2024-01-10T01:46:09;4.90;;;2.10;;
3967;SDS011;9221;42.646;23.380;2024-01-10T01:48:35;3.47;;;1.80;;
3967;SDS011;9221;42.646;23.380;2024-01-10T01:51:02;3.40;;;1.80;;
3967;SDS011;9221;42.646;23.380;2024-01-10T01:53:36;5.50;;;2.53;;
3967;SDS011;9221;42.646;23.380;2024-01-10T01:56:03;8.73;;;3.00;;
3967;SDS011;9221;42.646;23.380;2024-01-10T01:58:32;3.57;;;1.87;;
3967;SDS011;9221;42.646;23.380;2024-01-10T02:00:59;4.83;;;2.10;;
3967;SDS011;9221;42.646;23.380;2024-01-10T02:03:26;6.60;;;1.80;;
3967;SDS011;9221;42.646;23.380;2024-01-10T02:05:51;8.60;;;2.60;;
3967;SDS011;9221;42.646;23.380;2024-01-10T02:08:17;4.60;;;1.60;;
3967;SDS011;9221;42.646;23.380;2024-01-10T02:10:43;6.03;;;2.03;;
3967;SDS011;9221;42.646;23.380;2024-01-10T02:13:08;6.13;;;2.37;;
3967;SDS011;9221;42.646;23.380;2024-01-10T02:15:36;5.17;;;2.07;;
3967;SDS011;9221;42.646;23.380;2024-01-10T02:18:03;6.20;;;2.20;;
3967;SDS011;9221;42.646;23.380;2024-01-10T02:20:30;3.83;;;1.73;;
3967;SDS011;9221;42.646;23.380;2024-01-10T02:22:56;9.00;;;2.57;;
3967;SDS011;9221;42.646;23.380;2024-01-10T02:25:22;8.83;;;2.83;;
3967;SDS011;9221;42.646;23.380;2024-01-10T02:27:47;6.57;;;2.27;;
3967;SDS011;9221;42.646;23.380;2024-01-10T02:30:13;10.33;;;3.20;;
3967;SDS011;9221;42.646;23.380;2024-01-10T02:32:39;7.87;;;2.60;;
3967;SDS011;9221;42.646;23.380;2024-01-10T02:35:05;6.30;;;3.00;;
3967;SDS011;9221;42.646;23.380;2024-01-10T02:37:31;6.57;;;2.20;;
3967;SDS011;9221;42.646;23.380;2024-01-10T02:39:56;11.50;;;3.97;;
3967;SDS011;9221;42.646;23.380;2024-01-10T02:42:22;10.90;;;3.30;;
3967;SDS011;9221;42.646;23.380;2024-01-10T02:44:48;10.03;;;2.80;;
3967;SDS011;9221;42.646;23.380;2024-01-10T02:47:13;6.40;;;2.60;;
3967;SDS011;9221;42.646;23.380;2024-01-10T02:49:39;7.10;;;2.30;;
3967;SDS011;9221;42.646;23.380;2024-01-10T02:52:04;4.50;;;1.97;;
3967;SDS011;9221;42.646;23.380;2024-01-10T02:54:30;10.00;;;2.60;;
3967;SDS011;9221;42.646;23.380;2024-01-10T02:56:56;4.27;;;2.27;;
3967;SDS011;9221;42.646;23.380;2024-01-10T02:59:21;10.40;;;2.97;;
3967;SDS011;9221;42.646;23.380;2024-01-10T03:01:47;7.10;;;2.20;;
3967;SDS011;9221;42.646;23.380;2024-01-10T03:04:12;7.37;;;2.80;;
3967;SDS011;9221;42.646;23.380;2024-01-10T03:06:38;6.40;;;2.80;;
3967;SDS011;9221;42.646;23.380;2024-01-10T03:09:04;7.03;;;3.40;;
3967;SDS011;9221;42.646;23.380;2024-01-10T03:11:29;5.30;;;2.90;;
3967;SDS011;9221;42.646;23.380;2024-01-10T03:14:08;7.10;;;2.60;;
3967;SDS011;9221;42.646;23.380;2024-01-10T03:16:35;9.50;;;3.13;;
3967;SDS011;9221;42.646;23.380;2024-01-10T03:19:01;10.30;;;3.83;;
3967;SDS011;9221;42.646;23.380;2024-01-10T03:21:27;5.60;;;2.80;;
3967;SDS011;9221;42.646;23.380;2024-01-10T03:23:55;7.87;;;3.57;;
3967;SDS011;9221;42.646;23.380;2024-01-10T03:26:25;11.00;;;3.23;;
3967;SDS011;9221;42.646;23.380;2024-01-10T03:28:52;8.80;;;3.10;;
3967;SDS011;9221;42.646;23.380;2024-01-10T03:31:18;13.37;;;3.33;;
3967;SDS011;9221;42.646;23.380;2024-01-10T03:33:44;6.03;;;2.80;;
3967;SDS011;9221;42.646;23.380;2024-01-10T03:36:11;7.07;;;3.57;;
3967;SDS011;9221;42.646;23.380;2024-01-10T03:38:38;21.87;;;3.67;;
3967;SDS011;9221;42.646;23.380;2024-01-10T03:41:04;13.13;;;3.20;;
3967;SDS011;9221;42.646;23.380;2024-01-10T03:43:30;9.80;;;3.13;;
3967;SDS011;9221;42.646;23.380;2024-01-10T03:45:56;7.50;;;2.67;;
3967;SDS011;9221;42.646;23.380;2024-01-10T03:48:22;7.90;;;2.37;;
3967;SDS011;9221;42.646;23.380;2024-01-10T03:50:48;9.23;;;3.10;;
3967;SDS011;9221;42.646;23.380;2024-01-10T03:53:13;43.17;;;4.23;;
3967;SDS011;9221;42.646;23.380;2024-01-10T03:55:39;5.47;;;2.50;;
3967;SDS011;9221;42.646;23.380;2024-01-10T03:58:04;9.73;;;2.80;;
3967;SDS011;9221;42.646;23.380;2024-01-10T04:00:30;8.17;;;2.70;;
3967;SDS011;9221;42.646;23.380;2024-01-10T04:02:56;3.80;;;1.97;;
3967;SDS011;9221;42.646;23.380;2024-01-10T04:05:21;12.23;;;3.80;;
3967;SDS011;9221;42.646;23.380;2024-01-10T04:07:49;7.23;;;2.83;;
3967;SDS011;9221;42.646;23.380;2024-01-10T04:10:16;3.70;;;2.07;;
3967;SDS011;9221;42.646;23.380;2024-01-10T04:12:45;19.77;;;5.03;;
3967;SDS011;9221;42.646;23.380;2024-01-10T04:15:11;18.90;;;6.43;;
3967;SDS011;9221;42.646;23.380;2024-01-10T04:17:37;7.13;;;2.77;;
3967;SDS011;9221;42.646;23.380;2024-01-10T04:20:03;8.53;;;2.37;;
3967;SDS011;9221;42.646;23.380;2024-01-10T04:22:29;8.40;;;2.70;;
3967;SDS011;9221;42.646;23.380;2024-01-10T04:24:59;8.13;;;2.87;;
3967;SDS011;9221;42.646;23.380;2024-01-10T04:27:26;7.33;;;2.40;;
3967;SDS011;9221;42.646;23.380;2024-01-10T04:29:52;6.50;;;2.50;;
3967;SDS011;9221;42.646;23.380;2024-01-10T04:32:18;8.23;;;2.30;;
3967;SDS011;9221;42.646;23.380;2024-01-10T04:34:44;5.00;;;1.93;;
3967;SDS011;9221;42.646;23.380;2024-01-10T04:37:09;15.67;;;3.00;;
3967;SDS011;9221;42.646;23.380;2024-01-10T04:39:35;6.60;;;2.57;;
3967;SDS011;9221;42.646;23.380;2024-01-10T04:42:03;8.67;;;2.70;;
3967;SDS011;9221;42.646;23.380;2024-01-10T04:44:29;9.03;;;2.70;;
3967;SDS011;9221;42.646;23.380;2024-01-10T04:46:54;8.87;;;3.10;;
3967;SDS011;9221;42.646;23.380;2024-01-10T04:49:20;7.40;;;2.70;;
3967;SDS011;9221;42.646;23.380;2024-01-10T04:51:46;4.13;;;2.10;;
3967;SDS011;9221;42.646;23.380;2024-01-10T04:54:11;5.03;;;2.37;;
3967;SDS011;9221;42.646;23.380;2024-01-10T04:56:37;5.80;;;2.47;;
3967;SDS011;9221;42.646;23.380;2024-01-10T04:59:03;6.67;;;2.20;;
3967;SDS011;9221;42.646;23.380;2024-01-10T05:01:28;9.10;;;2.43;;
3967;SDS011;9221;42.646;23.380;2024-01-10T05:03:54;6.77;;;2.50;;
3967;SDS011;9221;42.646;23.380;2024-01-10T05:06:20;6.67;;;2.27;;
3967;SDS011;9221;42.646;23.380;2024-01-10T05:08:45;7.73;;;2.93;;
3967;SDS011;9221;42.646;23.380;2024-01-10T05:11:11;5.73;;;2.27;;
3967;SDS011;9221;42.646;23.380;2024-01-10T05:13:38;9.53;;;3.17;;
3967;SDS011;9221;42.646;23.380;2024-01-10T05:16:04;5.37;;;2.03;;
3967;SDS011;9221;42.646;23.380;2024-01-10T05:18:30;14.80;;;3.30;;
3967;SDS011;9221;42.646;23.380;2024-01-10T05:20:55;9.07;;;3.10;;
3967;SDS011;9221;42.646;23.380;2024-01-10T05:23:22;5.60;;;2.00;;
3967;SDS011;9221;42.646;23.380;2024-01-10T05:25:48;7.27;;;2.83;;
3967;SDS011;9221;42.646;23.380;2024-01-10T05:28:14;9.60;;;2.90;;
3967;SDS011;9221;42.646;23.380;2024-01-10T05:30:40;7.53;;;2.70;;
3967;SDS011;9221;42.646;23.380;2024-01-10T05:33:07;5.80;;;2.30;;
3967;SDS011;9221;42.646;23.380;2024-01-10T05:35:33;4.23;;;2.07;;
3967;SDS011;9221;42.646;23.380;2024-01-10T05:37:59;7.40;;;2.93;;
3967;SDS011;9221;42.646;23.380;2024-01-10T05:40:24;5.20;;;2.37;;
3967;SDS011;9221;42.646;23.380;2024-01-10T05:42:52;3.60;;;2.00;;
3967;SDS011;9221;42.646;23.380;2024-01-10T05:45:17;11.87;;;2.20;;
3967;SDS011;9221;42.646;23.380;2024-01-10T05:47:43;6.90;;;2.27;;
3967;SDS011;9221;42.646;23.380;2024-01-10T05:50:08;8.63;;;3.03;;
3967;SDS011;9221;42.646;23.380;2024-01-10T05:52:34;5.13;;;2.43;;
3967;SDS011;9221;42.646;23.380;2024-01-10T05:54:59;9.50;;;3.10;;
3967;SDS011;9221;42.646;23.380;2024-01-10T05:57:28;5.27;;;2.37;;
3967;SDS011;9221;42.646;23.380;2024-01-10T05:59:55;13.50;;;2.87;;
3967;SDS011;9221;42.646;23.380;2024-01-10T06:02:22;5.70;;;2.17;;
3967;SDS011;9221;42.646;23.380;2024-01-10T06:04:49;8.27;;;2.60;;
3967;SDS011;9221;42.646;23.380;2024-01-10T06:07:15;10.63;;;2.60;;
3967;SDS011;9221;42.646;23.380;2024-01-10T06:09:40;10.53;;;2.70;;
3967;SDS011;9221;42.646;23.380;2024-01-10T06:12:06;10.70;;;3.57;;
3967;SDS011;9221;42.646;23.380;2024-01-10T06:14:32;8.07;;;2.70;;
3967;SDS011;9221;42.646;23.380;2024-01-10T06:16:57;9.23;;;2.40;;
3967;SDS011;9221;42.646;23.380;2024-01-10T06:19:25;5.80;;;2.47;;
3967;SDS011;9221;42.646;23.380;2024-01-10T06:21:50;11.50;;;3.33;;
3967;SDS011;9221;42.646;23.380;2024-01-10T06:24:17;8.73;;;3.10;;
3967;SDS011;9221;42.646;23.380;2024-01-10T06:26:43;6.57;;;2.73;;
3967;SDS011;9221;42.646;23.380;2024-01-10T06:29:08;4.47;;;2.03;;
3967;SDS011;9221;42.646;23.380;2024-01-10T06:31:34;13.27;;;3.43;;
3967;SDS011;9221;42.646;23.380;2024-01-10T06:33:59;6.63;;;2.50;;
3967;SDS011;9221;42.646;23.380;2024-01-10T06:36:24;8.83;;;3.20;;
3967;SDS011;9221;42.646;23.380;2024-01-10T06:38:50;9.30;;;3.00;;
3967;SDS011;9221;42.646;23.380;2024-01-10T06:41:15;8.57;;;3.00;;
3967;SDS011;9221;42.646;23.380;2024-01-10T06:43:41;7.47;;;3.50;;
3967;SDS011;9221;42.646;23.380;2024-01-10T06:46:06;8.20;;;2.77;;
3967;SDS011;9221;42.646;23.380;2024-01-10T06:48:32;11.23;;;3.37;;
3967;SDS011;9221;42.646;23.380;2024-01-10T06:50:58;8.50;;;2.70;;
3967;SDS011;9221;42.646;23.380;2024-01-10T06:53:24;11.20;;;3.40;;
3967;SDS011;9221;42.646;23.380;2024-01-10T06:55:50;10.67;;;3.20;;
3967;SDS011;9221;42.646;23.380;2024-01-10T06:58:15;8.43;;;3.07;;
3967;SDS011;9221;42.646;23.380;2024-01-10T07:00:41;7.60;;;3.00;;
3967;SDS011;9221;42.646;23.380;2024-01-10T07:03:06;8.60;;;3.27;;
3967;SDS011;9221;42.646;23.380;2024-01-10T07:05:32;5.80;;;2.20;;
3967;SDS011;9221;42.646;23.380;2024-01-10T07:07:58;7.83;;;3.23;;
3967;SDS011;9221;42.646;23.380;2024-01-10T07:10:24;14.73;;;2.90;;
3967;SDS011;9221;42.646;23.380;2024-01-10T07:12:55;12.93;;;2.90;;
3967;SDS011;9221;42.646;23.380;2024-01-10T07:15:21;7.70;;;3.37;;
3967;SDS011;9221;42.646;23.380;2024-01-10T07:17:47;8.73;;;3.47;;
3967;SDS011;9221;42.646;23.380;2024-01-10T07:20:13;20.53;;;5.87;;
3967;SDS011;9221;42.646;23.380;2024-01-10T07:22:39;20.20;;;4.70;;
3967;SDS011;9221;42.646;23.380;2024-01-10T07:25:09;11.33;;;3.80;;
3967;SDS011;9221;42.646;23.380;2024-01-10T07:27:39;17.83;;;4.70;;
3967;SDS011;9221;42.646;23.380;2024-01-10T07:30:06;14.40;;;3.63;;
3967;SDS011;9221;42.646;23.380;2024-01-10T07:32:41;22.27;;;5.43;;
3967;SDS011;9221;42.646;23.380;2024-01-10T07:35:08;13.67;;;4.50;;
3967;SDS011;9221;42.646;23.380;2024-01-10T07:37:37;34.60;;;4.20;;
3967;SDS011;9221;42.646;23.380;2024-01-10T07:40:03;9.40;;;3.40;;
3967;SDS011;9221;42.646;23.380;2024-01-10T07:42:33;10.73;;;3.60;;
3967;SDS011;9221;42.646;23.380;2024-01-10T07:45:00;19.70;;;4.50;;
3967;SDS011;9221;42.646;23.380;2024-01-10T07:47:29;10.80;;;3.40;;
3967;SDS011;9221;42.646;23.380;2024-01-10T07:49:59;10.43;;;3.40;;
3967;SDS011;9221;42.646;23.380;2024-01-10T07:52:25;9.90;;;2.93;;
3967;SDS011;9221;42.646;23.380;2024-01-10T07:54:51;12.43;;;4.07;;
3967;SDS011;9221;42.646;23.380;2024-01-10T07:57:16;17.70;;;4.40;;
3967;SDS011;9221;42.646;23.380;2024-01-10T07:59:43;12.87;;;3.40;;
3967;SDS011;9221;42.646;23.380;2024-01-10T08:02:10;23.03;;;5.00;;
3967;SDS011;9221;42.646;23.380;2024-01-10T08:04:36;9.97;;;3.70;;
3967;SDS011;9221;42.646;23.380;2024-01-10T08:07:02;13.83;;;4.20;;
3967;SDS011;9221;42.646;23.380;2024-01-10T08:09:28;12.90;;;4.10;;
3967;SDS011;9221;42.646;23.380;2024-01-10T08:11:54;12.77;;;3.80;;
3967;SDS011;9221;42.646;23.380;2024-01-10T08:14:19;8.17;;;3.33;;
3967;SDS011;9221;42.646;23.380;2024-01-10T08:16:45;16.07;;;4.30;;
3967;SDS011;9221;42.646;23.380;2024-01-10T08:19:10;11.93;;;4.03;;
3967;SDS011;9221;42.646;23.380;2024-01-10T08:21:36;9.70;;;4.00;;
3967;SDS011;9221;42.646;23.380;2024-01-10T08:24:02;9.50;;;3.50;;
3967;SDS011;9221;42.646;23.380;2024-01-10T08:26:28;12.47;;;4.17;;
3967;SDS011;9221;42.646;23.380;2024-01-10T08:28:54;12.10;;;4.40;;
3967;SDS011;9221;42.646;23.380;2024-01-10T08:31:20;21.97;;;5.00;;
3967;SDS011;9221;42.646;23.380;2024-01-10T08:33:45;12.77;;;3.97;;
3967;SDS011;9221;42.646;23.380;2024-01-10T08:36:12;11.30;;;3.87;;
3967;SDS011;9221;42.646;23.380;2024-01-10T08:38:39;7.13;;;3.00;;
3967;SDS011;9221;42.646;23.380;2024-01-10T09:02:13;5.07;;;2.70;;
3967;SDS011;9221;42.646;23.380;2024-01-10T09:04:39;10.40;;;3.10;;
3967;SDS011;9221;42.646;23.380;2024-01-10T09:07:04;7.80;;;3.43;;
3967;SDS011;9221;42.646;23.380;2024-01-10T09:09:30;6.67;;;3.30;;
3967;SDS011;9221;42.646;23.380;2024-01-10T09:11:56;10.77;;;3.13;;
3967;SDS011;9221;42.646;23.380;2024-01-10T09:14:21;8.60;;;3.47;;
3967;SDS011;9221;42.646;23.380;2024-01-10T09:16:47;7.37;;;3.00;;
3967;SDS011;9221;42.646;23.380;2024-01-10T09:19:12;11.90;;;3.40;;
3967;SDS011;9221;42.646;23.380;2024-01-10T09:21:38;8.93;;;2.77;;
3967;SDS011;9221;42.646;23.380;2024-01-10T09:24:03;8.67;;;3.50;;
3967;SDS011;9221;42.646;23.380;2024-01-10T09:26:33;11.77;;;3.63;;
3967;SDS011;9221;42.646;23.380;2024-01-10T09:28:58;9.93;;;3.30;;
3967;SDS011;9221;42.646;23.380;2024-01-10T09:31:24;8.73;;;3.77;;
3967;SDS011;9221;42.646;23.380;2024-01-10T09:33:49;12.87;;;3.80;;
3967;SDS011;9221;42.646;23.380;2024-01-10T09:36:15;10.20;;;3.83;;
3967;SDS011;9221;42.646;23.380;2024-01-10T09:38:40;8.80;;;4.00;;
3967;SDS011;9221;42.646;23.380;2024-01-10T09:41:06;16.27;;;4.83;;
3967;SDS011;9221;42.646;23.380;2024-01-10T09:43:32;20.30;;;5.10;;
3967;SDS011;9221;42.646;23.380;2024-01-10T09:46:01;14.90;;;4.80;;
3967;SDS011;9221;42.646;23.380;2024-01-10T09:48:30;11.13;;;4.60;;
3967;SDS011;9221;42.646;23.380;2024-01-10T09:50:56;8.50;;;4.03;;
3967;SDS011;9221;42.646;23.380;2024-01-10T09:53:22;16.77;;;5.37;;
3967;SDS011;9221;42.646;23.380;2024-01-10T09:55:49;13.47;;;4.90;;
3967;SDS011;9221;42.646;23.380;2024-01-10T09:58:15;13.80;;;4.63;;
3967;SDS011;9221;42.646;23.380;2024-01-10T10:00:41;14.77;;;5.57;;
3967;SDS011;9221;42.646;23.380;2024-01-10T10:03:07;18.77;;;5.37;;
3967;SDS011;9221;42.646;23.380;2024-01-10T10:05:36;13.87;;;4.20;;
3967;SDS011;9221;42.646;23.380;2024-01-10T10:08:02;14.13;;;4.80;;
3967;SDS011;9221;42.646;23.380;2024-01-10T10:10:28;12.43;;;4.60;;
3967;SDS011;9221;42.646;23.380;2024-01-10T10:12:54;14.80;;;5.17;;
3967;SDS011;9221;42.646;23.380;2024-01-10T10:15:21;13.03;;;4.57;;
3967;SDS011;9221;42.646;23.380;2024-01-10T10:17:49;18.67;;;5.07;;
3967;SDS011;9221;42.646;23.380;2024-01-10T10:25:30;22.17;;;5.17;;
3967;SDS011;9221;42.646;23.380;2024-01-10T10:27:57;12.70;;;4.20;;
3967;SDS011;9221;42.646;23.380;2024-01-10T10:30:24;11.60;;;4.87;;
3967;SDS011;9221;42.646;23.380;2024-01-10T10:32:50;15.90;;;4.70;;
3967;SDS011;9221;42.646;23.380;2024-01-10T10:35:18;26.70;;;5.40;;
3967;SDS011;9221;42.646;23.380;2024-01-10T10:37:44;14.30;;;5.00;;
3967;SDS011;9221;42.646;23.380;2024-01-10T10:40:09;11.43;;;4.40;;
3967;SDS011;9221;42.646;23.380;2024-01-10T10:42:36;13.77;;;5.50;;
3967;SDS011;9221;42.646;23.380;2024-01-10T10:45:09;24.67;;;6.17;;
3967;SDS011;9221;42.646;23.380;2024-01-10T10:47:37;12.20;;;4.90;;
3967;SDS011;9221;42.646;23.380;2024-01-10T10:50:08;10.80;;;4.80;;
3967;SDS011;9221;42.646;23.380;2024-01-10T10:52:38;15.37;;;5.57;;
3967;SDS011;9221;42.646;23.380;2024-01-10T10:55:09;18.20;;;5.17;;
3967;SDS011;9221;42.646;23.380;2024-01-10T10:57:37;16.50;;;5.63;;
3967;SDS011;9221;42.646;23.380;2024-01-10T11:00:05;13.40;;;4.93;;
3967;SDS011;9221;42.646;23.380;2024-01-10T11:02:32;19.33;;;5.60;;
3967;SDS011;9221;42.646;23.380;2024-01-10T11:04:58;13.43;;;5.60;;
3967;SDS011;9221;42.646;23.380;2024-01-10T11:07:26;18.97;;;4.87;;
3967;SDS011;9221;42.646;23.380;2024-01-10T11:09:52;15.27;;;4.90;;
3967;SDS011;9221;42.646;23.380;2024-01-10T11:26:04;17.87;;;6.10;;
3967;SDS011;9221;42.646;23.380;2024-01-10T11:28:33;15.83;;;5.10;;
3967;SDS011;9221;42.646;23.380;2024-01-10T11:30:58;19.50;;;6.40;;
3967;SDS011;9221;42.646;23.380;2024-01-10T11:33:30;16.57;;;5.37;;
3967;SDS011;9221;42.646;23.380;2024-01-10T11:36:07;16.47;;;5.17;;
3967;SDS011;9221;42.646;23.380;2024-01-10T11:38:49;17.90;;;6.03;;
3967;SDS011;9221;42.646;23.380;2024-01-10T11:41:34;14.97;;;6.10;;
3967;SDS011;9221;42.646;23.380;2024-01-10T11:46:41;16.50;;;6.53;;
3967;SDS011;9221;42.646;23.380;2024-01-10T11:49:12;27.37;;;5.77;;
3967;SDS011;9221;42.646;23.380;2024-01-10T11:51:43;14.30;;;6.03;;
3967;SDS011;9221;42.646;23.380;2024-01-10T11:54:09;16.10;;;5.80;;
3967;SDS011;9221;42.646;23.380;2024-01-10T11:56:42;30.33;;;5.80;;
3967;SDS011;9221;42.646;23.380;2024-01-10T11:59:12;15.50;;;5.23;;
3967;SDS011;9221;42.646;23.380;2024-01-10T12:01:41;25.50;;;6.30;;
3967;SDS011;9221;42.646;23.380;2024-01-10T12:04:07;22.20;;;7.60;;
3967;SDS011;9221;42.646;23.380;2024-01-10T12:06:37;22.03;;;6.70;;
3967;SDS011;9221;42.646;23.380;2024-01-10T12:09:03;25.50;;;6.33;;
3967;SDS011;9221;42.646;23.380;2024-01-10T12:11:40;14.00;;;6.43;;
3967;SDS011;9221;42.646;23.380;2024-01-10T12:14:08;21.60;;;6.47;;
3967;SDS011;9221;42.646;23.380;2024-01-10T12:16:34;24.53;;;6.20;;
3967;SDS011;9221;42.646;23.380;2024-01-10T12:19:00;30.07;;;6.90;;
3967;SDS011;9221;42.646;23.380;2024-01-10T12:21:27;15.93;;;6.40;;
3967;SDS011;9221;42.646;23.380;2024-01-10T12:23:52;19.13;;;6.13;;
3967;SDS011;9221;42.646;23.380;2024-01-10T12:26:18;32.10;;;7.60;;
3967;SDS011;9221;42.646;23.380;2024-01-10T12:28:53;22.37;;;8.10;;
3967;SDS011;9221;42.646;23.380;2024-01-10T12:31:22;20.80;;;6.63;;
3967;SDS011;9221;42.646;23.380;2024-01-10T12:33:49;15.67;;;6.50;;
3967;SDS011;9221;42.646;23.380;2024-01-10T12:36:16;20.23;;;7.77;;
3967;SDS011;9221;42.646;23.380;2024-01-10T12:38:42;27.73;;;8.13;;
3967;SDS011;9221;42.646;23.380;2024-01-10T12:41:08;22.17;;;7.20;;
3967;SDS011;9221;42.646;23.380;2024-01-10T12:43:34;17.20;;;7.10;;
3967;SDS011;9221;42.646;23.380;2024-01-10T12:46:04;23.07;;;7.87;;
3967;SDS011;9221;42.646;23.380;2024-01-10T12:48:36;19.77;;;7.03;;
3967;SDS011;9221;42.646;23.380;2024-01-10T12:51:06;21.90;;;8.17;;
3967;SDS011;9221;42.646;23.380;2024-01-10T12:53:39;18.87;;;6.47;;
3967;SDS011;9221;42.646;23.380;2024-01-10T12:56:09;28.67;;;7.90;;
3967;SDS011;9221;42.646;23.380;2024-01-10T12:58:39;27.03;;;8.70;;
3967;SDS011;9221;42.646;23.380;2024-01-10T13:01:09;24.73;;;8.60;;
3967;SDS011;9221;42.646;23.380;2024-01-10T13:03:34;19.07;;;7.00;;
3967;SDS011;9221;42.646;23.380;2024-01-10T13:06:00;21.87;;;7.87;;
3967;SDS011;9221;42.646;23.380;2024-01-10T13:08:26;24.00;;;8.43;;
3967;SDS011;9221;42.646;23.380;2024-01-10T13:10:51;27.93;;;8.13;;
3967;SDS011;9221;42.646;23.380;2024-01-10T13:13:18;23.50;;;7.60;;
3967;SDS011;9221;42.646;23.380;2024-01-10T13:15:46;26.50;;;7.63;;
3967;SDS011;9221;42.646;23.380;2024-01-10T13:18:12;39.73;;;9.30;;
3967;SDS011;9221;42.646;23.380;2024-01-10T13:20:39;21.77;;;8.60;;
3967;SDS011;9221;42.646;23.380;2024-01-10T13:23:05;23.07;;;7.80;;
3967;SDS011;9221;42.646;23.380;2024-01-10T13:25:31;19.47;;;7.23;;
3967;SDS011;9221;42.646;23.380;2024-01-10T13:27:56;20.87;;;7.90;;
3967;SDS011;9221;42.646;23.380;2024-01-10T13:30:26;20.97;;;7.97;;
3967;SDS011;9221;42.646;23.380;2024-01-10T13:32:52;17.83;;;7.47;;
3967;SDS011;9221;42.646;23.380;2024-01-10T13:35:17;25.87;;;8.20;;
3967;SDS011;9221;42.646;23.380;2024-01-10T13:37:43;18.23;;;6.63;;
3967;SDS011;9221;42.646;23.380;2024-01-10T13:40:09;25.53;;;7.83;;
3967;SDS011;9221;42.646;23.380;2024-01-10T13:42:38;25.17;;;8.33;;
3967;SDS011;9221;42.646;23.380;2024-01-10T13:45:04;18.20;;;7.17;;
3967;SDS011;9221;42.646;23.380;2024-01-10T13:47:31;28.83;;;7.97;;
3967;SDS011;9221;42.646;23.380;2024-01-10T13:49:59;26.23;;;7.63;;
3967;SDS011;9221;42.646;23.380;2024-01-10T13:52:25;18.03;;;7.33;;
3967;SDS011;9221;42.646;23.380;2024-01-10T13:54:51;29.13;;;8.30;;
3967;SDS011;9221;42.646;23.380;2024-01-10T13:57:17;24.20;;;7.60;;
3967;SDS011;9221;42.646;23.380;2024-01-10T13:59:43;27.40;;;7.73;;
3967;SDS011;9221;42.646;23.380;2024-01-10T14:02:09;23.07;;;7.13;;
3967;SDS011;9221;42.646;23.380;2024-01-10T14:04:35;32.20;;;8.60;;
3967;SDS011;9221;42.646;23.380;2024-01-10T14:07:01;15.53;;;6.70;;
3967;SDS011;9221;42.646;23.380;2024-01-10T14:09:28;37.07;;;9.30;;
3967;SDS011;9221;42.646;23.380;2024-01-10T14:11:55;22.80;;;7.50;;
3967;SDS011;9221;42.646;23.380;2024-01-10T14:14:20;22.90;;;8.47;;
3967;SDS011;9221;42.646;23.380;2024-01-10T14:16:45;21.77;;;7.73;;
3967;SDS011;9221;42.646;23.380;2024-01-10T14:19:11;23.87;;;7.50;;
3967;SDS011;9221;42.646;23.380;2024-01-10T14:21:36;23.30;;;8.10;;
3967;SDS011;9221;42.646;23.380;2024-01-10T14:24:02;24.17;;;8.83;;
3967;SDS011;9221;42.646;23.380;2024-01-10T14:26:28;18.20;;;7.33;;
3967;SDS011;9221;42.646;23.380;2024-01-10T14:28:53;24.97;;;7.90;;
3967;SDS011;9221;42.646;23.380;2024-01-10T14:31:20;27.73;;;9.03;;
3967;SDS011;9221;42.646;23.380;2024-01-10T14:33:46;22.07;;;8.73;;
3967;SDS011;9221;42.646;23.380;2024-01-10T14:36:12;19.00;;;7.37;;
3967;SDS011;9221;42.646;23.380;2024-01-10T14:38:38;22.83;;;8.77;;
3967;SDS011;9221;42.646;23.380;2024-01-10T14:41:04;38.43;;;9.73;;
3967;SDS011;9221;42.646;23.380;2024-01-10T14:43:32;34.43;;;9.73;;
3967;SDS011;9221;42.646;23.380;2024-01-10T14:45:57;35.07;;;8.40;;
3967;SDS011;9221;42.646;23.380;2024-01-10T14:48:23;32.97;;;7.13;;
3967;SDS011;9221;42.646;23.380;2024-01-10T14:50:49;27.70;;;8.70;;
3967;SDS011;9221;42.646;23.380;2024-01-10T14:53:14;26.53;;;9.90;;
3967;SDS011;9221;42.646;23.380;2024-01-10T14:55:40;27.60;;;10.40;;
3967;SDS011;9221;42.646;23.380;2024-01-10T14:58:05;20.63;;;8.77;;
3967;SDS011;9221;42.646;23.380;2024-01-10T15:00:32;20.40;;;9.03;;
3967;SDS011;9221;42.646;23.380;2024-01-10T15:02:57;20.80;;;8.13;;
3967;SDS011;9221;42.646;23.380;2024-01-10T15:05:23;37.37;;;10.47;;
3967;SDS011;9221;42.646;23.380;2024-01-10T15:07:50;31.63;;;8.50;;
3967;SDS011;9221;42.646;23.380;2024-01-10T15:10:16;24.80;;;8.87;;
3967;SDS011;9221;42.646;23.380;2024-01-10T15:12:41;23.83;;;9.53;;
3967;SDS011;9221;42.646;23.380;2024-01-10T15:15:07;26.70;;;8.97;;
3967;SDS011;9221;42.646;23.380;2024-01-10T15:17:33;49.73;;;10.00;;
3967;SDS011;9221;42.646;23.380;2024-01-10T15:19:58;24.20;;;9.37;;
3967;SDS011;9221;42.646;23.380;2024-01-10T15:22:25;26.30;;;8.93;;
3967;SDS011;9221;42.646;23.380;2024-01-10T15:24:52;41.53;;;9.60;;
3967;SDS011;9221;42.646;23.380;2024-01-10T15:27:17;31.33;;;10.57;;
3967;SDS011;9221;42.646;23.380;2024-01-10T15:29:43;23.93;;;8.80;;
3967;SDS011;9221;42.646;23.380;2024-01-10T15:32:09;25.77;;;9.90;;